Time;durP1;ratioP1;P1;durP2;ratioP2;P2;SDS_P1;SDS_P2;PMS_P1;PMS_P2;Temp;Humidity;BMP_temperature;BMP_pressure;BME280_temperature;BME280_humidity;BME280_pressure;Samples;Min_cycle;Max_cycle;Signal;HPM_P1;HPM_P2
2022/09/01 00:01:38;;;;;;;0.40;0.40;;;;;;;;;;5077030;28;20071;-59
2022/09/01 00:04:04;;;;;;;0.30;0.30;;;;;;;;;;5079631;28;20123;-54
2022/09/01 00:06:32;;;;;;;0.30;0.30;;;;;;;;;;5074660;28;20084;-56
2022/09/01 00:09:00;;;;;;;0.40;0.40;;;;;;;;;;5072798;28;20113;-54
2022/09/01 00:11:26;;;;;;;0.50;0.25;;;;;;;;;;5076087;28;20047;-57
2022/09/01 00:13:53;;;;;;;0.32;0.30;;;;;;;;;;5076564;28;20113;-53
2022/09/01 00:16:20;;;;;;;0.35;0.30;;;;;;;;;;5077023;28;20036;-55
2022/09/01 00:18:50;;;;;;;0.50;0.40;;;;;;;;;;5077096;28;20478;-59
2022/09/01 00:21:21;;;;;;;0.43;0.30;;;;;;;;;;5075799;28;20036;-54
2022/09/01 00:23:47;;;;;;;0.37;0.37;;;;;;;;;;5079043;28;20040;-54
2022/09/01 00:26:14;;;;;;;0.20;0.20;;;;;;;;;;5071294;28;20047;-55
2022/09/01 00:28:40;;;;;;;0.30;0.30;;;;;;;;;;5072995;28;20052;-57
2022/09/01 00:31:06;;;;;;;0.35;0.35;;;;;;;;;;5079721;28;20574;-54
2022/09/01 00:33:33;;;;;;;0.40;0.40;;;;;;;;;;5072123;28;20040;-55
2022/09/01 00:35:59;;;;;;;0.10;0.10;;;;;;;;;;5076949;28;20055;-54
2022/09/01 00:38:25;;;;;;;0.40;0.10;;;;;;;;;;5073178;28;20052;-54
2022/09/01 00:40:51;;;;;;;0.20;0.20;;;;;;;;;;5074660;28;20059;-54
2022/09/01 00:43:21;;;;;;;0.25;0.25;;;;;;;;;;5077585;28;20040;-55
2022/09/01 00:45:48;;;;;;;0.20;0.20;;;;;;;;;;5073207;28;20040;-53
2022/09/01 00:48:14;;;;;;;0.13;0.10;;;;;;;;;;5055308;28;20109;-54
2022/09/01 00:50:41;;;;;;;0.38;0.10;;;;;;;;;;5071503;28;20131;-56
2022/09/01 00:53:07;;;;;;;0.10;0.10;;;;;;;;;;5075452;28;20499;-57
2022/09/01 00:55:35;;;;;;;0.20;0.20;;;;;;;;;;5072936;28;20533;-58
2022/09/01 00:58:02;;;;;;;0.70;0.20;;;;;;;;;;5079092;28;20072;-55
2022/09/01 01:00:30;;;;;;;1.40;0.30;;;;;;;;;;5074701;28;20080;-56
2022/09/01 01:02:56;;;;;;;0.20;0.20;;;;;;;;;;5073049;28;20055;-57
2022/09/01 01:05:31;;;;;;;0.35;0.20;;;;;;;;;;5074233;28;20044;-55
2022/09/01 01:08:00;;;;;;;0.20;0.20;;;;;;;;;;5076466;28;20119;-53
2022/09/01 01:10:27;;;;;;;0.20;0.20;;;;;;;;;;5078840;28;20079;-53
2022/09/01 01:12:53;;;;;;;0.10;0.10;;;;;;;;;;5079827;28;20058;-54
2022/09/01 01:15:20;;;;;;;0.15;0.15;;;;;;;;;;5074984;28;20040;-55
2022/09/01 01:17:46;;;;;;;0.22;0.20;;;;;;;;;;5078519;28;20044;-59
2022/09/01 01:23:06;;;;;;;0.20;0.20;;;;;;;;;;5078478;28;20546;-55
2022/09/01 01:25:35;;;;;;;0.20;0.20;;;;;;;;;;5074212;28;20076;-55
2022/09/01 01:28:02;;;;;;;;;;;;;;;;;;5081679;28;20040;-55
2022/09/01 01:30:31;;;;;;;0.35;0.20;;;;;;;;;;5081996;28;20393;-55
2022/09/01 01:32:57;;;;;;;0.70;0.30;;;;;;;;;;5079336;28;20048;-54
2022/09/01 01:35:24;;;;;;;0.20;0.20;;;;;;;;;;5077860;28;20051;-54
2022/09/01 01:37:50;;;;;;;0.40;0.38;;;;;;;;;;5075096;28;20127;-54
2022/09/01 01:40:18;;;;;;;0.47;0.20;;;;;;;;;;5080281;28;20562;-56
2022/09/01 01:42:45;;;;;;;0.30;0.30;;;;;;;;;;5080281;28;20046;-55
2022/09/01 01:45:14;;;;;;;0.30;0.30;;;;;;;;;;5079131;28;20059;-56
2022/09/01 01:47:41;;;;;;;0.30;0.30;;;;;;;;;;5075634;28;20048;-54
2022/09/01 01:50:08;;;;;;;0.65;0.30;;;;;;;;;;5072069;28;20044;-56
2022/09/01 01:52:34;;;;;;;0.52;0.20;;;;;;;;;;5075441;28;20052;-57
2022/09/01 01:55:01;;;;;;;0.85;0.32;;;;;;;;;;5073863;28;20068;-54
2022/09/01 01:57:30;;;;;;;0.20;0.10;;;;;;;;;;5075688;28;20658;-55
2022/09/01 01:59:56;;;;;;;0.22;0.17;;;;;;;;;;5078615;28;20074;-57
2022/09/01 02:02:23;;;;;;;0.40;0.40;;;;;;;;;;5077701;28;20218;-54
2022/09/01 02:04:49;;;;;;;0.70;0.40;;;;;;;;;;5076507;28;20076;-58
2022/09/01 02:07:15;;;;;;;0.20;0.20;;;;;;;;;;5077186;28;20055;-54
2022/09/01 02:09:45;;;;;;;0.20;0.20;;;;;;;;;;5080676;28;20139;-53
2022/09/01 02:12:11;;;;;;;0.20;0.20;;;;;;;;;;5077064;28;20101;-53
2022/09/01 02:14:37;;;;;;;0.50;0.30;;;;;;;;;;5074882;28;20048;-55
2022/09/01 02:17:05;;;;;;;0.20;0.15;;;;;;;;;;5077760;28;20052;-58
2022/09/01 02:19:31;;;;;;;0.25;0.25;;;;;;;;;;5073661;28;20070;-53
2022/09/01 02:21:59;;;;;;;0.93;0.40;;;;;;;;;;5076766;28;20047;-54
2022/09/01 02:24:25;;;;;;;0.10;0.10;;;;;;;;;;5082926;28;20104;-55
2022/09/01 02:26:51;;;;;;;0.28;0.25;;;;;;;;;;5071142;28;20491;-56
2022/09/01 02:29:20;;;;;;;0.88;0.30;;;;;;;;;;5078353;28;20051;-54
2022/09/01 02:31:48;;;;;;;0.20;0.20;;;;;;;;;;5075878;28;20048;-56
2022/09/01 02:34:14;;;;;;;0.20;0.20;;;;;;;;;;5078002;28;20133;-55
2022/09/01 02:36:48;;;;;;;0.20;0.20;;;;;;;;;;5075225;28;20060;-53
2022/09/01 02:39:19;;;;;;;0.10;0.10;;;;;;;;;;5076928;28;20514;-55
2022/09/01 02:41:45;;;;;;;0.20;0.20;;;;;;;;;;5077932;28;20498;-58
2022/09/01 02:44:11;;;;;;;0.20;0.20;;;;;;;;;;5075968;28;20048;-56
2022/09/01 02:46:40;;;;;;;0.40;0.40;;;;;;;;;;5074522;28;20052;-57
2022/09/01 02:49:13;;;;;;;0.35;0.22;;;;;;;;;;5076648;28;20055;-56
2022/09/01 02:51:40;;;;;;;0.30;0.30;;;;;;;;;;5079763;28;20043;-53
2022/09/01 02:54:06;;;;;;;1.10;0.30;;;;;;;;;;5077704;28;20052;-53
2022/09/01 02:56:32;;;;;;;0.30;0.30;;;;;;;;;;5074372;28;20040;-54
2022/09/01 02:58:59;;;;;;;0.20;0.20;;;;;;;;;;5074004;28;20071;-53
2022/09/01 03:01:28;;;;;;;0.10;0.10;;;;;;;;;;5076184;28;20051;-54
2022/09/01 03:03:55;;;;;;;0.22;0.20;;;;;;;;;;5072474;28;20083;-54
2022/09/01 03:06:22;;;;;;;0.20;0.20;;;;;;;;;;5077154;28;20052;-54
2022/09/01 03:08:49;;;;;;;0.70;0.50;;;;;;;;;;5074195;28;20472;-58
2022/09/01 03:11:15;;;;;;;0.70;0.40;;;;;;;;;;5076688;28;20047;-53
2022/09/01 03:13:42;;;;;;;0.20;0.20;;;;;;;;;;5078363;28;20079;-55
2022/09/01 03:16:09;;;;;;;0.38;0.28;;;;;;;;;;5075279;28;20032;-54
2022/09/01 03:18:35;;;;;;;0.10;0.10;;;;;;;;;;5075568;28;20051;-55
2022/09/01 03:21:01;;;;;;;0.20;0.20;;;;;;;;;;5076275;28;20044;-54
2022/09/01 03:23:28;;;;;;;0.20;0.20;;;;;;;;;;5076250;28;20048;-54
2022/09/01 03:25:55;;;;;;;0.20;0.17;;;;;;;;;;5077974;28;20449;-53
2022/09/01 03:28:21;;;;;;;0.17;0.17;;;;;;;;;;5076164;28;20063;-55
2022/09/01 03:30:49;;;;;;;0.20;0.10;;;;;;;;;;5073980;28;20049;-54
2022/09/01 03:33:16;;;;;;;0.10;0.10;;;;;;;;;;5077867;28;20093;-55
2022/09/01 03:35:43;;;;;;;0.35;0.22;;;;;;;;;;5058226;28;20063;-54
2022/09/01 03:38:11;;;;;;;0.30;0.28;;;;;;;;;;5075153;28;20090;-52
2022/09/01 03:40:38;;;;;;;0.20;0.20;;;;;;;;;;5074837;28;20056;-54
2022/09/01 03:43:04;;;;;;;0.20;0.20;;;;;;;;;;5079465;28;20051;-56
2022/09/01 03:45:37;;;;;;;0.30;0.30;;;;;;;;;;5074965;28;20044;-56
2022/09/01 03:48:07;;;;;;;0.73;0.20;;;;;;;;;;5072921;28;20134;-55
2022/09/01 03:50:38;;;;;;;0.20;0.20;;;;;;;;;;5070940;28;20052;-58
2022/09/01 03:53:04;;;;;;;0.50;0.20;;;;;;;;;;5075447;28;20079;-53
2022/09/01 03:55:33;;;;;;;0.10;0.10;;;;;;;;;;5054989;28;20056;-53
2022/09/01 03:58:06;;;;;;;0.10;0.10;;;;;;;;;;5073200;28;20050;-53
2022/09/01 04:00:38;;;;;;;0.20;0.20;;;;;;;;;;5074882;28;20471;-53
2022/09/01 04:03:06;;;;;;;0.20;0.20;;;;;;;;;;5076719;28;20082;-54
2022/09/01 04:05:33;;;;;;;0.10;0.10;;;;;;;;;;5057010;28;20048;-55
2022/09/01 04:08:02;;;;;;;0.10;0.10;;;;;;;;;;5071602;28;20549;-53
2022/09/01 04:10:31;;;;;;;0.13;0.10;;;;;;;;;;5079171;28;20194;-54
2022/09/01 04:12:57;;;;;;;0.10;0.10;;;;;;;;;;5076318;28;20049;-56
2022/09/01 04:15:24;;;;;;;0.20;0.15;;;;;;;;;;5075521;28;20504;-53
2022/09/01 04:18:09;;;;;;;0.17;0.13;;;;;;;;;;5073474;28;20406;-55
2022/09/01 04:20:47;;;;;;;0.10;0.10;;;;;;;;;;5075504;28;20105;-54
2022/09/01 04:23:20;;;;;;;0.28;0.20;;;;;;;;;;5076044;28;20042;-56
2022/09/01 04:25:49;;;;;;;0.15;0.15;;;;;;;;;;5072667;28;20181;-55
2022/09/01 04:28:21;;;;;;;0.10;0.10;;;;;;;;;;5076446;28;20048;-55
2022/09/01 04:30:54;;;;;;;0.17;0.10;;;;;;;;;;5078218;28;20055;-55
2022/09/01 04:33:21;;;;;;;0.10;0.10;;;;;;;;;;5076369;28;20040;-56
2022/09/01 04:35:53;;;;;;;0.10;0.10;;;;;;;;;;5074610;28;20053;-54
2022/09/01 04:38:20;;;;;;;;;;;;;;;;;;5074787;28;20447;-54
2022/09/01 04:40:48;;;;;;;0.20;0.20;;;;;;;;;;5072158;28;19963;-53
2022/09/01 04:43:14;;;;;;;0.10;0.10;;;;;;;;;;5078605;28;20036;-51
2022/09/01 04:45:41;;;;;;;0.30;0.30;;;;;;;;;;5078235;28;20048;-56
2022/09/01 04:48:08;;;;;;;0.30;0.30;;;;;;;;;;5082417;28;20074;-56
2022/09/01 04:50:36;;;;;;;0.20;0.20;;;;;;;;;;5079137;28;20094;-58
2022/09/01 04:53:04;;;;;;;0.10;0.10;;;;;;;;;;5076342;28;20056;-56
2022/09/01 04:55:31;;;;;;;0.22;0.20;;;;;;;;;;5080915;28;20127;-55
2022/09/01 04:57:58;;;;;;;0.17;0.17;;;;;;;;;;5081117;28;20135;-55
2022/09/01 05:00:25;;;;;;;0.22;0.22;;;;;;;;;;5087933;28;20048;-52
2022/09/01 05:03:01;;;;;;;0.32;0.25;;;;;;;;;;5069153;28;20056;-53
2022/09/01 05:05:28;;;;;;;0.10;0.10;;;;;;;;;;5077393;28;20139;-55
2022/09/01 05:07:54;;;;;;;0.35;0.32;;;;;;;;;;5074599;28;20654;-55
2022/09/01 05:10:20;;;;;;;0.63;0.40;;;;;;;;;;5074842;28;20044;-52
2022/09/01 05:12:46;;;;;;;0.28;0.28;;;;;;;;;;5069181;28;20059;-55
2022/09/01 05:15:13;;;;;;;0.70;0.32;;;;;;;;;;5086278;28;20093;-55
2022/09/01 05:17:40;;;;;;;2.13;0.20;;;;;;;;;;5071741;28;20044;-54
2022/09/01 05:20:06;;;;;;;0.30;0.30;;;;;;;;;;5088892;28;20557;-54
2022/09/01 05:22:34;;;;;;;0.22;0.17;;;;;;;;;;5080724;28;20042;-56
2022/09/01 05:25:11;;;;;;;0.30;0.30;;;;;;;;;;5085357;28;20059;-55
2022/09/01 05:27:38;;;;;;;0.20;0.20;;;;;;;;;;5078082;28;20048;-54
2022/09/01 05:30:07;;;;;;;0.32;0.30;;;;;;;;;;5088035;28;20067;-56
2022/09/01 05:32:35;;;;;;;0.20;0.20;;;;;;;;;;5089345;28;20048;-55
2022/09/01 05:35:02;;;;;;;0.10;0.10;;;;;;;;;;5088862;28;20051;-53
2022/09/01 05:37:29;;;;;;;0.20;0.20;;;;;;;;;;5088370;28;20123;-54
2022/09/01 05:39:55;;;;;;;0.30;0.30;;;;;;;;;;5088554;28;20090;-56
2022/09/01 05:42:21;;;;;;;0.90;0.40;;;;;;;;;;5088317;28;20625;-54
2022/09/01 05:44:47;;;;;;;0.32;0.32;;;;;;;;;;5088510;28;20211;-56
2022/09/01 05:47:15;;;;;;;0.35;0.30;;;;;;;;;;5079967;28;20051;-54
2022/09/01 05:49:41;;;;;;;0.30;0.30;;;;;;;;;;5077511;28;20643;-56
2022/09/01 05:52:08;;;;;;;0.45;0.30;;;;;;;;;;5076920;28;20059;-56
2022/09/01 05:54:34;;;;;;;0.57;0.40;;;;;;;;;;5087664;28;20052;-57
2022/09/01 05:57:02;;;;;;;0.32;0.32;;;;;;;;;;5067634;28;20178;-53
2022/09/01 05:59:30;;;;;;;0.30;0.30;;;;;;;;;;5076931;28;20052;-56
2022/09/01 06:01:56;;;;;;;0.35;0.35;;;;;;;;;;5077051;28;20524;-54
2022/09/01 06:04:24;;;;;;;0.50;0.50;;;;;;;;;;5087627;28;20044;-54
2022/09/01 06:06:52;;;;;;;0.40;0.40;;;;;;;;;;5073426;28;20044;-52
2022/09/01 06:09:22;;;;;;;0.22;0.22;;;;;;;;;;5068742;28;20041;-55
2022/09/01 06:11:48;;;;;;;0.40;0.40;;;;;;;;;;5067665;28;20145;-55
2022/09/01 06:14:14;;;;;;;0.40;0.40;;;;;;;;;;5068202;28;20058;-54
2022/09/01 06:16:41;;;;;;;0.50;0.30;;;;;;;;;;5068068;28;20060;-56
2022/09/01 06:19:07;;;;;;;0.30;0.30;;;;;;;;;;5066947;28;20051;-55
2022/09/01 06:21:34;;;;;;;0.40;0.30;;;;;;;;;;5068132;28;20137;-54
2022/09/01 06:24:00;;;;;;;0.52;0.35;;;;;;;;;;5067702;28;20127;-52
2022/09/01 06:26:28;;;;;;;0.40;0.40;;;;;;;;;;5067134;28;20128;-55
2022/09/01 06:29:00;;;;;;;0.22;0.22;;;;;;;;;;5067702;28;20053;-54
2022/09/01 06:31:32;;;;;;;0.73;0.40;;;;;;;;;;5059197;28;20052;-52
2022/09/01 06:33:59;;;;;;;0.80;0.73;;;;;;;;;;5080060;28;20059;-54
2022/09/01 06:36:25;;;;;;;1.20;0.40;;;;;;;;;;5077216;28;20394;-56
2022/09/01 06:38:52;;;;;;;0.47;0.38;;;;;;;;;;5072903;28;20474;-56
2022/09/01 06:41:19;;;;;;;0.30;0.30;;;;;;;;;;5067793;28;20079;-55
2022/09/01 06:43:46;;;;;;;0.35;0.35;;;;;;;;;;5067567;28;20051;-59
2022/09/01 06:46:12;;;;;;;0.30;0.30;;;;;;;;;;5067583;28;20075;-54
2022/09/01 06:48:45;;;;;;;0.47;0.40;;;;;;;;;;5073268;28;20490;-53
2022/09/01 06:51:13;;;;;;;0.50;0.50;;;;;;;;;;5077275;28;20052;-54
2022/09/01 06:53:39;;;;;;;0.30;0.30;;;;;;;;;;5084684;28;20307;-56
2022/09/01 06:56:05;;;;;;;0.82;0.40;;;;;;;;;;5081734;28;20048;-56
2022/09/01 06:58:32;;;;;;;0.60;0.38;;;;;;;;;;5076105;28;20048;-57
2022/09/01 07:00:58;;;;;;;0.20;0.20;;;;;;;;;;5075929;28;20048;-51
2022/09/01 07:03:25;;;;;;;0.40;0.40;;;;;;;;;;5074969;28;20305;-55
2022/09/01 07:05:51;;;;;;;0.88;0.38;;;;;;;;;;5077524;28;20048;-55
2022/09/01 07:08:20;;;;;;;0.52;0.52;;;;;;;;;;5074486;28;20495;-53
2022/09/01 07:10:48;;;;;;;0.60;0.60;;;;;;;;;;5087010;28;20503;-57
2022/09/01 07:13:18;;;;;;;0.60;0.43;;;;;;;;;;5069589;28;20159;-55
2022/09/01 07:15:48;;;;;;;1.25;0.50;;;;;;;;;;5078618;28;20052;-54
2022/09/01 07:18:16;;;;;;;0.70;0.65;;;;;;;;;;5078020;28;20047;-53
2022/09/01 07:20:43;;;;;;;0.50;0.50;;;;;;;;;;5068165;28;20083;-56
2022/09/01 07:23:10;;;;;;;0.35;0.32;;;;;;;;;;5066248;28;20119;-56
2022/09/01 07:25:37;;;;;;;;;;;;;;;;;;5077882;28;20396;-55
2022/09/01 07:28:03;;;;;;;;;;;;;;;;;;5084496;28;20015;-58
2022/09/01 07:30:30;;;;;;;;;;;;;;;;;;5084191;28;19928;-52
2022/09/01 07:32:56;;;;;;;;;;;;;;;;;;5084466;28;20309;-55
2022/09/01 07:35:22;;;;;;;;;;;;;;;;;;5071418;28;20382;-57
2022/09/01 07:37:49;;;;;;;;;;;;;;;;;;5071856;28;19978;-58
2022/09/01 07:40:17;;;;;;;;;;;;;;;;;;5067170;28;19977;-57
2022/09/01 07:42:43;;;;;;;;;;;;;;;;;;5065789;28;19948;-53
2022/09/01 07:45:09;;;;;;;;;;;;;;;;;;5075902;28;19928;-54
2022/09/01 07:47:35;;;;;;;;;;;;;;;;;;5078058;28;19935;-56
2022/09/01 07:50:02;;;;;;;;;;;;;;;;;;5055721;28;20510;-56
2022/09/01 07:52:30;;;;;;;;;;;;;;;;;;5080814;28;20379;-53
2022/09/01 07:54:56;;;;;;;;;;;;;;;;;;5077152;28;19928;-56
2022/09/01 07:57:22;;;;;;;0.30;0.30;;;;;;;;;;5072948;28;19920;-53
2022/09/01 07:59:50;;;;;;;0.57;0.32;;;;;;;;;;5080573;28;20051;-54
2022/09/01 08:02:17;;;;;;;0.22;0.22;;;;;;;;;;5082909;28;20050;-56
2022/09/01 08:04:43;;;;;;;0.28;0.20;;;;;;;;;;5075573;28;20487;-56
2022/09/01 08:07:09;;;;;;;0.80;0.20;;;;;;;;;;5079204;28;20536;-53
2022/09/01 08:09:37;;;;;;;0.30;0.30;;;;;;;;;;5076547;28;20173;-53
2022/09/01 08:12:02;;;;;;;;;;;;;;;;;;5083226;28;20048;-54
2022/09/01 08:14:30;;;;;;;0.28;0.28;;;;;;;;;;5083418;28;20348;-56
2022/09/01 08:16:56;;;;;;;;;;;;;;;;;;5079904;28;20084;-55
2022/09/01 08:19:22;;;;;;;0.77;0.77;;;;;;;;;;5077906;28;20161;-55
2022/09/01 08:21:48;;;;;;;1.08;0.55;;;;;;;;;;5080570;28;20041;-57
2022/09/01 08:24:14;;;;;;;;;;;;;;;;;;5081240;28;20147;-54
2022/09/01 08:26:40;;;;;;;5.57;0.65;;;;;;;;;;5079498;28;20135;-56
2022/09/01 08:29:06;;;;;;;0.50;0.50;;;;;;;;;;5081358;28;20114;-54
2022/09/01 08:31:34;;;;;;;0.82;0.70;;;;;;;;;;5083210;28;20044;-54
2022/09/01 08:34:00;;;;;;;1.15;0.80;;;;;;;;;;5076082;28;20040;-53
2022/09/01 08:36:26;;;;;;;2.15;0.70;;;;;;;;;;5078068;28;20044;-54
2022/09/01 08:38:52;;;;;;;0.70;0.70;;;;;;;;;;5078091;28;20127;-56
2022/09/01 08:41:30;;;;;;;0.60;0.60;;;;;;;;;;5081996;28;20068;-56
2022/09/01 08:44:13;;;;;;;0.53;0.53;;;;;;;;;;5070230;28;20063;-54
2022/09/01 08:46:41;;;;;;;0.75;0.70;;;;;;;;;;5074643;28;20579;-54
2022/09/01 08:49:10;;;;;;;0.60;0.60;;;;;;;;;;5080990;28;20423;-52
2022/09/01 08:51:46;;;;;;;0.60;0.60;;;;;;;;;;5066676;28;20066;-53
2022/09/01 08:54:33;;;;;;;0.60;0.60;;;;;;;;;;5075649;28;20080;-53
2022/09/01 08:56:59;;;;;;;;;;;;;;;;;;5063585;28;20059;-52
2022/09/01 08:59:26;;;;;;;0.67;0.53;;;;;;;;;;5077691;28;19925;-55
2022/09/01 09:01:55;;;;;;;0.50;0.50;;;;;;;;;;5071128;28;20083;-57
2022/09/01 09:04:22;;;;;;;6.35;0.88;;;;;;;;;;5077218;28;20048;-51
2022/09/01 09:06:56;;;;;;;1.95;0.73;;;;;;;;;;5074761;28;20052;-56
2022/09/01 09:09:30;;;;;;;0.63;0.50;;;;;;;;;;5074095;28;20045;-53
2022/09/01 09:11:57;;;;;;;0.70;0.68;;;;;;;;;;5079746;28;20060;-59
2022/09/01 09:14:37;;;;;;;0.60;0.60;;;;;;;;;;5078006;28;20287;-53
2022/09/01 09:17:04;;;;;;;1.65;0.90;;;;;;;;;;5076317;28;20502;-54
2022/09/01 09:19:41;;;;;;;1.02;0.70;;;;;;;;;;5074882;28;20119;-50
2022/09/01 09:22:11;;;;;;;0.60;0.45;;;;;;;;;;5075001;28;20049;-55
2022/09/01 09:24:57;;;;;;;0.75;0.52;;;;;;;;;;5075937;28;20040;-53
2022/09/01 09:27:38;;;;;;;0.63;0.38;;;;;;;;;;5071233;28;20123;-55
2022/09/01 09:30:06;;;;;;;0.40;0.40;;;;;;;;;;5075386;28;20059;-63
2022/09/01 09:32:49;;;;;;;0.60;0.60;;;;;;;;;;5088030;28;20044;-55
2022/09/01 09:35:15;;;;;;;;;;;;;;;;;;5079999;28;20379;-53
2022/09/01 09:37:41;;;;;;;0.70;0.70;;;;;;;;;;5086808;28;19966;-55
2022/09/01 09:40:16;;;;;;;1.50;0.60;;;;;;;;;;5077593;28;20694;-52
2022/09/01 09:42:54;;;;;;;0.50;0.50;;;;;;;;;;5087305;28;20044;-51
2022/09/01 09:45:23;;;;;;;2.10;0.70;;;;;;;;;;5077203;28;20040;-57
2022/09/01 09:47:49;;;;;;;0.70;0.70;;;;;;;;;;5082469;28;20052;-57
2022/09/01 09:50:28;;;;;;;0.82;0.45;;;;;;;;;;5077738;28;20039;-54
2022/09/01 09:53:10;;;;;;;0.45;0.38;;;;;;;;;;5070638;28;20411;-55
2022/09/01 09:55:36;;;;;;;2.47;0.40;;;;;;;;;;5078009;28;20103;-56
2022/09/01 09:58:09;;;;;;;0.50;0.50;;;;;;;;;;5075375;28;20055;-57
2022/09/01 10:00:37;;;;;;;0.30;0.30;;;;;;;;;;5084373;28;20036;-54
2022/09/01 10:03:06;;;;;;;0.63;0.47;;;;;;;;;;5085138;28;20473;-51
2022/09/01 10:05:35;;;;;;;0.70;0.63;;;;;;;;;;5074694;28;20055;-55
2022/09/01 10:08:02;;;;;;;0.50;0.47;;;;;;;;;;5078557;28;20043;-50
2022/09/01 10:10:31;;;;;;;1.10;0.60;;;;;;;;;;5082751;28;20411;-50
2022/09/01 10:12:58;;;;;;;0.40;0.40;;;;;;;;;;5075155;28;20040;-56
2022/09/01 10:15:28;;;;;;;0.43;0.30;;;;;;;;;;5079775;28;20500;-53
2022/09/01 10:17:58;;;;;;;0.50;0.30;;;;;;;;;;5086176;28;20044;-55
2022/09/01 10:20:26;;;;;;;0.77;0.32;;;;;;;;;;5080495;28;20325;-50
2022/09/01 10:22:52;;;;;;;0.55;0.40;;;;;;;;;;5071951;28;20166;-52
2022/09/01 10:25:23;;;;;;;0.40;0.40;;;;;;;;;;5079755;28;20047;-54
2022/09/01 10:27:51;;;;;;;0.30;0.30;;;;;;;;;;5077114;28;20058;-57
2022/09/01 10:30:21;;;;;;;0.40;0.40;;;;;;;;;;5073753;28;20450;-56
2022/09/01 10:32:49;;;;;;;0.82;0.47;;;;;;;;;;5081781;28;20056;-52
2022/09/01 10:35:22;;;;;;;0.50;0.38;;;;;;;;;;5077838;28;20042;-51
2022/09/01 10:37:49;;;;;;;1.38;0.30;;;;;;;;;;5075805;28;20044;-49
2022/09/01 10:40:15;;;;;;;0.93;0.50;;;;;;;;;;5082842;28;20040;-55
2022/09/01 10:42:43;;;;;;;0.90;0.30;;;;;;;;;;5082099;28;20399;-54
2022/09/01 10:45:21;;;;;;;0.25;0.25;;;;;;;;;;5066460;28;20090;-53
2022/09/01 10:47:48;;;;;;;0.28;0.28;;;;;;;;;;5074434;28;20158;-53
2022/09/01 10:50:26;;;;;;;1.20;0.40;;;;;;;;;;5083124;28;20040;-52
2022/09/01 10:52:53;;;;;;;1.30;0.32;;;;;;;;;;5078974;28;20071;-56
2022/09/01 10:55:22;;;;;;;0.63;0.40;;;;;;;;;;5082748;28;20166;-59
2022/09/01 10:57:54;;;;;;;0.50;0.40;;;;;;;;;;5066761;28;20694;-52
2022/09/01 11:00:20;;;;;;;;;;;;;;;;;;5082866;28;20044;-57
2022/09/01 11:03:05;;;;;;;0.80;0.50;;;;;;;;;;5074990;28;19931;-58
2022/09/01 11:05:31;;;;;;;;;;;;;;;;;;5073607;28;20090;-53
2022/09/01 11:07:56;;;;;;;;;;;;;;;;;;5079867;28;20361;-53
2022/09/01 11:10:22;;;;;;;;;;;;;;;;;;5079673;28;19930;-52
2022/09/01 11:12:48;;;;;;;0.70;0.40;;;;;;;;;;5074535;28;19920;-55
2022/09/01 11:15:14;;;;;;;0.75;0.43;;;;;;;;;;5081255;28;20050;-53
2022/09/01 11:17:49;;;;;;;1.65;0.57;;;;;;;;;;5077552;28;20040;-51
2022/09/01 11:20:25;;;;;;;0.80;0.38;;;;;;;;;;5066553;28;20044;-54
2022/09/01 11:22:56;;;;;;;0.45;0.38;;;;;;;;;;5066302;28;20495;-57
2022/09/01 11:25:35;;;;;;;0.50;0.32;;;;;;;;;;5066528;28;20056;-53
2022/09/01 11:28:06;;;;;;;0.30;0.30;;;;;;;;;;5072088;28;20039;-55
2022/09/01 11:30:49;;;;;;;0.30;0.30;;;;;;;;;;5078190;28;20132;-55
2022/09/01 11:33:15;;;;;;;0.47;0.30;;;;;;;;;;5073488;28;20101;-52
2022/09/01 11:35:43;;;;;;;0.40;0.40;;;;;;;;;;5074712;28;20508;-53
2022/09/01 11:38:10;;;;;;;0.30;0.30;;;;;;;;;;5069766;28;20539;-53
2022/09/01 11:40:36;;;;;;;0.80;0.40;;;;;;;;;;5078095;28;20039;-53
2022/09/01 11:43:11;;;;;;;0.28;0.28;;;;;;;;;;5085085;28;20513;-56
2022/09/01 11:45:44;;;;;;;0.85;0.40;;;;;;;;;;5082964;28;20496;-51
2022/09/01 11:48:12;;;;;;;1.17;0.32;;;;;;;;;;5081904;28;20123;-53
2022/09/01 11:50:39;;;;;;;1.10;0.40;;;;;;;;;;5076078;28;20131;-53
2022/09/01 11:53:11;;;;;;;0.30;0.30;;;;;;;;;;5081683;28;20125;-51
2022/09/01 11:55:47;;;;;;;0.40;0.20;;;;;;;;;;5079252;28;20047;-55
2022/09/01 11:58:13;;;;;;;;;;;;;;;;;;5080984;28;20496;-53
2022/09/01 12:00:41;;;;;;;0.50;0.40;;;;;;;;;;5077167;28;20004;-53
2022/09/01 12:03:20;;;;;;;0.38;0.35;;;;;;;;;;5056542;28;20059;-53
2022/09/01 12:05:47;;;;;;;0.40;0.40;;;;;;;;;;5076233;28;20809;-60
2022/09/01 12:08:14;;;;;;;0.90;0.47;;;;;;;;;;5077687;28;20522;-55
2022/09/01 12:10:43;;;;;;;0.40;0.30;;;;;;;;;;5075283;28;20041;-55
2022/09/01 12:13:11;;;;;;;1.17;0.50;;;;;;;;;;5077328;28;20108;-53
2022/09/01 12:15:41;;;;;;;0.25;0.25;;;;;;;;;;5081418;28;20406;-54
2022/09/01 12:18:06;;;;;;;;;;;;;;;;;;5079069;28;20498;-53
2022/09/01 12:20:32;;;;;;;;;;;;;;;;;;5080468;28;19921;-56
2022/09/01 12:22:58;;;;;;;;;;;;;;;;;;5075177;28;19921;-53
2022/09/01 12:25:24;;;;;;;;;;;;;;;;;;5076824;28;19978;-52
2022/09/01 12:27:50;;;;;;;;;;;;;;;;;;5066010;28;19967;-53
2022/09/01 12:30:16;;;;;;;;;;;;;;;;;;5067068;28;20382;-55
2022/09/01 12:32:42;;;;;;;;;;;;;;;;;;5074558;28;19930;-56
2022/09/01 12:35:08;;;;;;;;;;;;;;;;;;5072213;28;20011;-51
2022/09/01 12:37:34;;;;;;;;;;;;;;;;;;5077194;28;19926;-59
2022/09/01 12:40:00;;;;;;;;;;;;;;;;;;5082210;28;19927;-54
2022/09/01 12:42:26;;;;;;;;;;;;;;;;;;5078209;28;19924;-51
2022/09/01 12:44:52;;;;;;;;;;;;;;;;;;5074580;28;19924;-53
2022/09/01 12:47:39;;;;;;;0.40;0.25;;;;;;;;;;5079248;28;20006;-54
2022/09/01 12:50:14;;;;;;;0.40;0.40;;;;;;;;;;5073633;28;20048;-53
2022/09/01 12:52:45;;;;;;;0.35;0.35;;;;;;;;;;5076112;28;20060;-53
2022/09/01 12:55:18;;;;;;;0.75;0.40;;;;;;;;;;5076218;28;20054;-53
2022/09/01 12:58:05;;;;;;;0.40;0.25;;;;;;;;;;5080789;28;20560;-57
2022/09/01 13:00:31;;;;;;;;;;;;;;;;;;5072286;28;19935;-52
2022/09/01 13:02:57;;;;;;;0.30;0.30;;;;;;;;;;5083505;28;19928;-55
2022/09/01 13:05:24;;;;;;;0.40;0.20;;;;;;;;;;5085831;28;20048;-52
2022/09/01 13:07:54;;;;;;;0.60;0.30;;;;;;;;;;5081106;28;20044;-53
2022/09/01 13:10:22;;;;;;;0.50;0.20;;;;;;;;;;5084636;28;20036;-55
2022/09/01 13:12:48;;;;;;;0.43;0.30;;;;;;;;;;5080400;28;20052;-53
2022/09/01 13:15:14;;;;;;;0.20;0.20;;;;;;;;;;5085497;28;20124;-53
2022/09/01 13:17:40;;;;;;;0.60;0.40;;;;;;;;;;5085257;28;19920;-53
2022/09/01 13:20:07;;;;;;;1.08;0.60;;;;;;;;;;5083078;28;20093;-54
2022/09/01 13:22:33;;;;;;;0.68;0.30;;;;;;;;;;5079368;28;20127;-55
2022/09/01 13:25:00;;;;;;;2.25;0.40;;;;;;;;;;5085783;28;20429;-54
2022/09/01 13:27:26;;;;;;;0.60;0.40;;;;;;;;;;5080539;28;20050;-55
2022/09/01 13:29:52;;;;;;;0.68;0.57;;;;;;;;;;5078778;28;20167;-56
2022/09/01 13:32:18;;;;;;;;;;;;;;;;;;5079117;28;20079;-56
2022/09/01 13:34:44;;;;;;;;;;;;;;;;;;5056562;28;20010;-54
2022/09/01 13:37:10;;;;;;;;;;;;;;;;;;5075246;28;20617;-52
2022/09/01 13:39:36;;;;;;;;;;;;;;;;;;5076583;28;19967;-54
2022/09/01 13:42:01;;;;;;;;;;;;;;;;;;5078146;28;19930;-54
2022/09/01 13:44:27;;;;;;;;;;;;;;;;;;5084484;28;20303;-55
2022/09/01 13:46:54;;;;;;;;;;;;;;;;;;5086014;28;19920;-53
2022/09/01 13:49:19;;;;;;;;;;;;;;;;;;5081595;28;19920;-55
2022/09/01 13:51:45;;;;;;;;;;;;;;;;;;5077607;28;20294;-55
2022/09/01 13:54:11;;;;;;;;;;;;;;;;;;5077054;28;19931;-53
2022/09/01 13:56:39;;;;;;;;;;;;;;;;;;5072713;28;19924;-51
2022/09/01 13:59:04;;;;;;;;;;;;;;;;;;5078248;28;20246;-55
2022/09/01 14:01:30;;;;;;;;;;;;;;;;;;5076099;28;19920;-55
2022/09/01 14:03:57;;;;;;;;;;;;;;;;;;5073134;28;20363;-54
2022/09/01 14:06:23;;;;;;;;;;;;;;;;;;5082168;28;19924;-53
2022/09/01 14:08:49;;;;;;;;;;;;;;;;;;5065984;28;19920;-59
2022/09/01 14:11:15;;;;;;;;;;;;;;;;;;5084352;28;20405;-52
2022/09/01 14:13:41;;;;;;;0.30;0.30;;;;;;;;;;5088035;28;19920;-52
2022/09/01 14:16:10;;;;;;;0.52;0.40;;;;;;;;;;5079568;28;20262;-53
2022/09/01 14:18:37;;;;;;;0.30;0.30;;;;;;;;;;5075552;28;20055;-52
2022/09/01 14:21:04;;;;;;;0.43;0.30;;;;;;;;;;5078765;28;20052;-51
2022/09/01 14:23:30;;;;;;;0.32;0.20;;;;;;;;;;5079322;28;20036;-54
2022/09/01 14:25:57;;;;;;;0.45;0.32;;;;;;;;;;5080236;28;20044;-54
2022/09/01 14:28:23;;;;;;;0.65;0.30;;;;;;;;;;5071774;28;20048;-52
2022/09/01 14:30:50;;;;;;;0.50;0.30;;;;;;;;;;5078940;28;20055;-54
2022/09/01 14:33:17;;;;;;;0.32;0.20;;;;;;;;;;5084622;28;20036;-53
2022/09/01 14:35:44;;;;;;;0.20;0.20;;;;;;;;;;5084529;28;20121;-56
2022/09/01 14:38:12;;;;;;;0.32;0.20;;;;;;;;;;5083535;28;20127;-55
2022/09/01 14:40:38;;;;;;;0.70;0.30;;;;;;;;;;5081488;28;20557;-53
2022/09/01 14:43:05;;;;;;;0.50;0.20;;;;;;;;;;5077901;28;20040;-59
2022/09/01 14:45:31;;;;;;;1.45;0.28;;;;;;;;;;5079726;28;20048;-52
2022/09/01 14:47:59;;;;;;;0.25;0.22;;;;;;;;;;5079614;28;20051;-55
2022/09/01 14:50:25;;;;;;;0.40;0.28;;;;;;;;;;5071915;28;20067;-53
2022/09/01 14:52:53;;;;;;;0.30;0.30;;;;;;;;;;5073604;28;20062;-54
2022/09/01 14:55:20;;;;;;;2.40;0.30;;;;;;;;;;5082397;28;20044;-60
2022/09/01 14:57:46;;;;;;;0.43;0.30;;;;;;;;;;5080191;28;20060;-56
2022/09/01 15:00:13;;;;;;;0.70;0.52;;;;;;;;;;5073370;28;20033;-59
2022/09/01 15:02:40;;;;;;;0.52;0.20;;;;;;;;;;5080217;28;20461;-53
2022/09/01 15:05:07;;;;;;;0.55;0.30;;;;;;;;;;5078978;28;20047;-53
2022/09/01 15:07:33;;;;;;;0.30;0.17;;;;;;;;;;5079228;28;20119;-53
2022/09/01 15:09:59;;;;;;;0.30;0.30;;;;;;;;;;5079533;28;20387;-53